sensor_id;sensor_type;location;lat;lon;timestamp;P1;durP1;ratioP1;P2;durP2;ratioP2
10090;SDS011;5084;51.386;6.778;2023-08-17T00:01:14;3.37;;;3.07;;
10090;SDS011;5084;51.386;6.778;2023-08-17T00:03:40;3.37;;;3.07;;
10090;SDS011;5084;51.386;6.778;2023-08-17T00:06:06;3.27;;;3.03;;
10090;SDS011;5084;51.386;6.778;2023-08-17T00:08:32;4.10;;;3.50;;
10090;SDS011;5084;51.386;6.778;2023-08-17T00:10:58;4.60;;;2.90;;
10090;SDS011;5084;51.386;6.778;2023-08-17T00:13:24;3.90;;;3.20;;
10090;SDS011;5084;51.386;6.778;2023-08-17T00:15:50;4.37;;;3.30;;
10090;SDS011;5084;51.386;6.778;2023-08-17T00:18:16;5.07;;;4.03;;
10090;SDS011;5084;51.386;6.778;2023-08-17T00:20:42;3.63;;;3.03;;
10090;SDS011;5084;51.386;6.778;2023-08-17T00:23:09;4.33;;;3.60;;
10090;SDS011;5084;51.386;6.778;2023-08-17T00:25:35;5.57;;;3.73;;
10090;SDS011;5084;51.386;6.778;2023-08-17T00:28:01;5.27;;;4.53;;
10090;SDS011;5084;51.386;6.778;2023-08-17T00:30:27;4.87;;;4.33;;
10090;SDS011;5084;51.386;6.778;2023-08-17T00:32:53;5.33;;;3.93;;
10090;SDS011;5084;51.386;6.778;2023-08-17T00:35:19;4.93;;;4.53;;
10090;SDS011;5084;51.386;6.778;2023-08-17T00:37:45;4.90;;;4.07;;
10090;SDS011;5084;51.386;6.778;2023-08-17T00:40:11;6.37;;;4.87;;
10090;SDS011;5084;51.386;6.778;2023-08-17T00:42:37;5.40;;;4.90;;
10090;SDS011;5084;51.386;6.778;2023-08-17T00:45:04;6.67;;;4.37;;
10090;SDS011;5084;51.386;6.778;2023-08-17T00:47:30;4.50;;;4.10;;
10090;SDS011;5084;51.386;6.778;2023-08-17T00:49:56;4.27;;;3.77;;
10090;SDS011;5084;51.386;6.778;2023-08-17T00:52:23;4.00;;;3.67;;
10090;SDS011;5084;51.386;6.778;2023-08-17T00:54:49;6.77;;;4.40;;
10090;SDS011;5084;51.386;6.778;2023-08-17T00:57:15;5.17;;;4.13;;
10090;SDS011;5084;51.386;6.778;2023-08-17T00:59:42;4.57;;;3.87;;
10090;SDS011;5084;51.386;6.778;2023-08-17T01:02:08;6.73;;;3.87;;
10090;SDS011;5084;51.386;6.778;2023-08-17T01:04:34;4.63;;;3.90;;
10090;SDS011;5084;51.386;6.778;2023-08-17T01:07:00;3.93;;;3.53;;
10090;SDS011;5084;51.386;6.778;2023-08-17T01:09:27;4.60;;;3.70;;
10090;SDS011;5084;51.386;6.778;2023-08-17T01:11:56;5.80;;;4.07;;
10090;SDS011;5084;51.386;6.778;2023-08-17T01:14:27;5.50;;;4.63;;
10090;SDS011;5084;51.386;6.778;2023-08-17T01:19:27;5.50;;;3.80;;
10090;SDS011;5084;51.386;6.778;2023-08-17T01:21:54;7.57;;;4.30;;
10090;SDS011;5084;51.386;6.778;2023-08-17T01:24:23;4.87;;;4.37;;
10090;SDS011;5084;51.386;6.778;2023-08-17T01:26:49;5.07;;;3.63;;
10090;SDS011;5084;51.386;6.778;2023-08-17T01:29:15;4.60;;;4.10;;
10090;SDS011;5084;51.386;6.778;2023-08-17T01:32:28;4.57;;;3.67;;
10090;SDS011;5084;51.386;6.778;2023-08-17T01:34:28;4.30;;;3.90;;
10090;SDS011;5084;51.386;6.778;2023-08-17T01:36:57;4.13;;;3.73;;
10090;SDS011;5084;51.386;6.778;2023-08-17T01:39:27;4.33;;;3.40;;
10090;SDS011;5084;51.386;6.778;2023-08-17T01:41:55;4.37;;;3.97;;
10090;SDS011;5084;51.386;6.778;2023-08-17T01:44:24;3.60;;;3.17;;
10090;SDS011;5084;51.386;6.778;2023-08-17T01:46:51;3.73;;;3.23;;
10090;SDS011;5084;51.386;6.778;2023-08-17T01:49:18;4.83;;;4.00;;
10090;SDS011;5084;51.386;6.778;2023-08-17T01:51:44;4.30;;;3.90;;
10090;SDS011;5084;51.386;6.778;2023-08-17T01:54:10;4.37;;;3.70;;
10090;SDS011;5084;51.386;6.778;2023-08-17T01:56:36;5.47;;;3.70;;
10090;SDS011;5084;51.386;6.778;2023-08-17T01:59:02;3.40;;;3.10;;
10090;SDS011;5084;51.386;6.778;2023-08-17T02:01:28;4.23;;;3.53;;
10090;SDS011;5084;51.386;6.778;2023-08-17T02:03:54;6.43;;;3.87;;
10090;SDS011;5084;51.386;6.778;2023-08-17T02:06:20;4.53;;;4.07;;
10090;SDS011;5084;51.386;6.778;2023-08-17T02:08:46;6.43;;;3.70;;
10090;SDS011;5084;51.386;6.778;2023-08-17T02:11:12;7.00;;;3.80;;
10090;SDS011;5084;51.386;6.778;2023-08-17T02:13:38;4.80;;;4.40;;
10090;SDS011;5084;51.386;6.778;2023-08-17T02:16:04;5.00;;;4.37;;
10090;SDS011;5084;51.386;6.778;2023-08-17T02:18:30;8.17;;;3.87;;
10090;SDS011;5084;51.386;6.778;2023-08-17T02:20:58;8.03;;;5.30;;
10090;SDS011;5084;51.386;6.778;2023-08-17T02:23:24;4.60;;;4.20;;
10090;SDS011;5084;51.386;6.778;2023-08-17T02:25:50;5.00;;;4.60;;
10090;SDS011;5084;51.386;6.778;2023-08-17T02:28:16;6.93;;;5.60;;
10090;SDS011;5084;51.386;6.778;2023-08-17T02:30:43;5.93;;;4.43;;
10090;SDS011;5084;51.386;6.778;2023-08-17T02:33:09;5.60;;;4.77;;
10090;SDS011;5084;51.386;6.778;2023-08-17T02:35:35;6.13;;;5.10;;
10090;SDS011;5084;51.386;6.778;2023-08-17T02:38:01;8.33;;;5.47;;
10090;SDS011;5084;51.386;6.778;2023-08-17T02:40:27;6.63;;;4.80;;
10090;SDS011;5084;51.386;6.778;2023-08-17T02:42:53;5.33;;;4.77;;
10090;SDS011;5084;51.386;6.778;2023-08-17T02:45:19;5.83;;;5.20;;
10090;SDS011;5084;51.386;6.778;2023-08-17T02:47:45;6.70;;;4.40;;
10090;SDS011;5084;51.386;6.778;2023-08-17T02:50:11;5.80;;;4.73;;
10090;SDS011;5084;51.386;6.778;2023-08-17T02:52:38;5.77;;;4.67;;
10090;SDS011;5084;51.386;6.778;2023-08-17T02:55:04;7.97;;;4.53;;
10090;SDS011;5084;51.386;6.778;2023-08-17T02:57:30;4.93;;;4.47;;
10090;SDS011;5084;51.386;6.778;2023-08-17T02:59:56;4.87;;;4.37;;
10090;SDS011;5084;51.386;6.778;2023-08-17T03:02:22;8.73;;;4.60;;
10090;SDS011;5084;51.386;6.778;2023-08-17T03:04:48;6.77;;;4.67;;
10090;SDS011;5084;51.386;6.778;2023-08-17T03:07:14;5.27;;;4.77;;
10090;SDS011;5084;51.386;6.778;2023-08-17T03:09:40;5.07;;;4.67;;
10090;SDS011;5084;51.386;6.778;2023-08-17T03:12:06;5.43;;;4.93;;
10090;SDS011;5084;51.386;6.778;2023-08-17T03:14:32;5.30;;;4.80;;
10090;SDS011;5084;51.386;6.778;2023-08-17T03:16:59;7.20;;;6.63;;
10090;SDS011;5084;51.386;6.778;2023-08-17T03:19:25;4.50;;;4.13;;
10090;SDS011;5084;51.386;6.778;2023-08-17T03:21:51;7.00;;;4.83;;
10090;SDS011;5084;51.386;6.778;2023-08-17T03:24:17;5.60;;;4.73;;
10090;SDS011;5084;51.386;6.778;2023-08-17T03:26:43;5.23;;;4.73;;
10090;SDS011;5084;51.386;6.778;2023-08-17T03:29:09;5.47;;;4.93;;
10090;SDS011;5084;51.386;6.778;2023-08-17T03:31:35;7.33;;;6.47;;
10090;SDS011;5084;51.386;6.778;2023-08-17T03:34:01;6.50;;;4.60;;
10090;SDS011;5084;51.386;6.778;2023-08-17T03:36:27;6.57;;;5.47;;
10090;SDS011;5084;51.386;6.778;2023-08-17T03:38:53;7.57;;;5.57;;
10090;SDS011;5084;51.386;6.778;2023-08-17T03:41:20;8.67;;;5.53;;
10090;SDS011;5084;51.386;6.778;2023-08-17T03:43:48;5.47;;;4.97;;
10090;SDS011;5084;51.386;6.778;2023-08-17T03:46:14;5.50;;;5.00;;
10090;SDS011;5084;51.386;6.778;2023-08-17T03:48:40;5.37;;;4.87;;
10090;SDS011;5084;51.386;6.778;2023-08-17T03:51:06;6.43;;;4.83;;
10090;SDS011;5084;51.386;6.778;2023-08-17T03:53:32;5.10;;;4.70;;
10090;SDS011;5084;51.386;6.778;2023-08-17T03:55:58;5.17;;;4.73;;
10090;SDS011;5084;51.386;6.778;2023-08-17T03:58:24;6.10;;;4.57;;
10090;SDS011;5084;51.386;6.778;2023-08-17T04:00:52;9.13;;;4.83;;
10090;SDS011;5084;51.386;6.778;2023-08-17T04:03:18;7.13;;;5.27;;
10090;SDS011;5084;51.386;6.778;2023-08-17T04:05:44;5.27;;;4.00;;
10090;SDS011;5084;51.386;6.778;2023-08-17T04:08:10;6.43;;;4.87;;
10090;SDS011;5084;51.386;6.778;2023-08-17T04:10:37;5.43;;;4.77;;
10090;SDS011;5084;51.386;6.778;2023-08-17T04:13:03;5.10;;;3.97;;
10090;SDS011;5084;51.386;6.778;2023-08-17T04:15:29;5.97;;;4.30;;
10090;SDS011;5084;51.386;6.778;2023-08-17T04:17:55;5.73;;;4.50;;
10090;SDS011;5084;51.386;6.778;2023-08-17T04:20:21;5.73;;;4.40;;
10090;SDS011;5084;51.386;6.778;2023-08-17T04:22:47;4.50;;;4.07;;
10090;SDS011;5084;51.386;6.778;2023-08-17T04:25:14;6.87;;;4.50;;
10090;SDS011;5084;51.386;6.778;2023-08-17T04:27:40;3.97;;;3.67;;
10090;SDS011;5084;51.386;6.778;2023-08-17T04:30:06;6.20;;;3.93;;
10090;SDS011;5084;51.386;6.778;2023-08-17T04:32:32;4.47;;;4.07;;
10090;SDS011;5084;51.386;6.778;2023-08-17T04:34:58;8.38;;;4.35;;
10090;SDS011;5084;51.386;6.778;2023-08-17T04:37:24;7.57;;;4.60;;
10090;SDS011;5084;51.386;6.778;2023-08-17T04:39:50;6.83;;;5.20;;
10090;SDS011;5084;51.386;6.778;2023-08-17T04:42:16;6.83;;;4.40;;
10090;SDS011;5084;51.386;6.778;2023-08-17T04:44:44;4.87;;;4.47;;
10090;SDS011;5084;51.386;6.778;2023-08-17T04:47:10;8.30;;;4.80;;
10090;SDS011;5084;51.386;6.778;2023-08-17T04:49:36;7.40;;;4.10;;
10090;SDS011;5084;51.386;6.778;2023-08-17T04:52:03;5.87;;;4.23;;
10090;SDS011;5084;51.386;6.778;2023-08-17T04:54:29;5.83;;;4.23;;
10090;SDS011;5084;51.386;6.778;2023-08-17T04:56:55;5.77;;;4.13;;
10090;SDS011;5084;51.386;6.778;2023-08-17T04:59:21;5.07;;;4.57;;
10090;SDS011;5084;51.386;6.778;2023-08-17T05:01:47;8.10;;;4.63;;
10090;SDS011;5084;51.386;6.778;2023-08-17T05:04:13;8.60;;;4.87;;
10090;SDS011;5084;51.386;6.778;2023-08-17T05:06:39;5.33;;;4.70;;
10090;SDS011;5084;51.386;6.778;2023-08-17T05:09:06;4.70;;;4.20;;
10090;SDS011;5084;51.386;6.778;2023-08-17T05:11:32;9.43;;;4.67;;
10090;SDS011;5084;51.386;6.778;2023-08-17T05:13:58;4.43;;;4.03;;
10090;SDS011;5084;51.386;6.778;2023-08-17T05:16:24;6.03;;;5.10;;
10090;SDS011;5084;51.386;6.778;2023-08-17T05:18:50;5.60;;;5.10;;
10090;SDS011;5084;51.386;6.778;2023-08-17T05:21:16;6.77;;;5.30;;
10090;SDS011;5084;51.386;6.778;2023-08-17T05:23:42;5.77;;;4.77;;
10090;SDS011;5084;51.386;6.778;2023-08-17T05:26:08;4.27;;;3.83;;
10090;SDS011;5084;51.386;6.778;2023-08-17T05:28:34;4.40;;;4.00;;
10090;SDS011;5084;51.386;6.778;2023-08-17T05:31:06;4.73;;;3.67;;
10090;SDS011;5084;51.386;6.778;2023-08-17T05:33:32;9.43;;;3.87;;
10090;SDS011;5084;51.386;6.778;2023-08-17T05:35:59;3.60;;;3.30;;
10090;SDS011;5084;51.386;6.778;2023-08-17T05:38:25;4.73;;;3.87;;
10090;SDS011;5084;51.386;6.778;2023-08-17T05:40:54;8.03;;;5.47;;
10090;SDS011;5084;51.386;6.778;2023-08-17T05:43:21;5.00;;;4.33;;
10090;SDS011;5084;51.386;6.778;2023-08-17T05:45:47;5.30;;;4.20;;
10090;SDS011;5084;51.386;6.778;2023-08-17T05:48:13;4.73;;;4.30;;
10090;SDS011;5084;51.386;6.778;2023-08-17T05:50:42;4.83;;;3.60;;
10090;SDS011;5084;51.386;6.778;2023-08-17T05:53:08;3.97;;;3.33;;
10090;SDS011;5084;51.386;6.778;2023-08-17T05:55:34;4.70;;;3.97;;
10090;SDS011;5084;51.386;6.778;2023-08-17T05:58:01;4.00;;;3.37;;
10090;SDS011;5084;51.386;6.778;2023-08-17T06:00:29;6.30;;;3.80;;
10090;SDS011;5084;51.386;6.778;2023-08-17T06:02:55;4.03;;;3.73;;
10090;SDS011;5084;51.386;6.778;2023-08-17T06:05:26;4.40;;;4.00;;
10090;SDS011;5084;51.386;6.778;2023-08-17T06:07:52;4.83;;;4.23;;
10090;SDS011;5084;51.386;6.778;2023-08-17T06:10:18;6.73;;;4.23;;
10090;SDS011;5084;51.386;6.778;2023-08-17T06:12:45;5.43;;;4.43;;
10090;SDS011;5084;51.386;6.778;2023-08-17T06:15:13;5.60;;;5.10;;
10090;SDS011;5084;51.386;6.778;2023-08-17T06:17:39;4.70;;;4.30;;
10090;SDS011;5084;51.386;6.778;2023-08-17T06:20:05;5.53;;;4.23;;
10090;SDS011;5084;51.386;6.778;2023-08-17T06:22:34;6.40;;;4.67;;
10090;SDS011;5084;51.386;6.778;2023-08-17T06:25:00;6.30;;;4.50;;
10090;SDS011;5084;51.386;6.778;2023-08-17T06:27:27;4.73;;;4.10;;
10090;SDS011;5084;51.386;6.778;2023-08-17T06:29:53;8.60;;;4.60;;
10090;SDS011;5084;51.386;6.778;2023-08-17T06:32:19;5.83;;;4.40;;
10090;SDS011;5084;51.386;6.778;2023-08-17T06:34:45;5.30;;;4.77;;
10090;SDS011;5084;51.386;6.778;2023-08-17T06:37:11;10.37;;;5.10;;
10090;SDS011;5084;51.386;6.778;2023-08-17T06:39:37;5.10;;;4.70;;
10090;SDS011;5084;51.386;6.778;2023-08-17T06:42:03;5.57;;;4.87;;
10090;SDS011;5084;51.386;6.778;2023-08-17T06:44:29;5.70;;;4.80;;
10090;SDS011;5084;51.386;6.778;2023-08-17T06:46:56;5.43;;;4.90;;
10090;SDS011;5084;51.386;6.778;2023-08-17T06:49:23;5.50;;;4.90;;
10090;SDS011;5084;51.386;6.778;2023-08-17T06:51:49;7.93;;;5.13;;
10090;SDS011;5084;51.386;6.778;2023-08-17T06:54:15;6.67;;;5.60;;
10090;SDS011;5084;51.386;6.778;2023-08-17T06:56:41;6.27;;;5.13;;
10090;SDS011;5084;51.386;6.778;2023-08-17T06:59:07;6.77;;;5.10;;
10090;SDS011;5084;51.386;6.778;2023-08-17T07:01:33;6.60;;;5.50;;
10090;SDS011;5084;51.386;6.778;2023-08-17T07:03:59;5.43;;;4.93;;
10090;SDS011;5084;51.386;6.778;2023-08-17T07:06:25;7.33;;;5.13;;
10090;SDS011;5084;51.386;6.778;2023-08-17T07:08:51;6.10;;;5.50;;
10090;SDS011;5084;51.386;6.778;2023-08-17T07:11:18;6.63;;;6.03;;
10090;SDS011;5084;51.386;6.778;2023-08-17T07:13:44;7.03;;;5.87;;
10090;SDS011;5084;51.386;6.778;2023-08-17T07:16:10;9.90;;;8.80;;
10090;SDS011;5084;51.386;6.778;2023-08-17T07:18:36;11.40;;;7.90;;
10090;SDS011;5084;51.386;6.778;2023-08-17T07:21:02;8.23;;;7.37;;
10090;SDS011;5084;51.386;6.778;2023-08-17T07:23:28;11.17;;;8.57;;
10090;SDS011;5084;51.386;6.778;2023-08-17T07:25:54;11.43;;;8.53;;
10090;SDS011;5084;51.386;6.778;2023-08-17T07:28:20;10.80;;;8.50;;
10090;SDS011;5084;51.386;6.778;2023-08-17T07:30:46;10.93;;;8.13;;
10090;SDS011;5084;51.386;6.778;2023-08-17T07:33:12;10.53;;;8.17;;
10090;SDS011;5084;51.386;6.778;2023-08-17T07:35:38;15.27;;;8.70;;
10090;SDS011;5084;51.386;6.778;2023-08-17T07:38:04;9.53;;;8.60;;
10090;SDS011;5084;51.386;6.778;2023-08-17T07:40:30;8.50;;;7.60;;
10090;SDS011;5084;51.386;6.778;2023-08-17T07:42:56;9.70;;;8.60;;
10090;SDS011;5084;51.386;6.778;2023-08-17T07:45:26;10.20;;;8.87;;
10090;SDS011;5084;51.386;6.778;2023-08-17T07:47:52;9.80;;;8.80;;
10090;SDS011;5084;51.386;6.778;2023-08-17T07:50:18;14.03;;;9.40;;
10090;SDS011;5084;51.386;6.778;2023-08-17T07:52:46;13.73;;;9.63;;
10090;SDS011;5084;51.386;6.778;2023-08-17T07:55:12;11.43;;;9.90;;
10090;SDS011;5084;51.386;6.778;2023-08-17T07:57:38;13.60;;;8.93;;
10090;SDS011;5084;51.386;6.778;2023-08-17T08:00:05;12.83;;;10.13;;
10090;SDS011;5084;51.386;6.778;2023-08-17T08:02:31;16.57;;;9.57;;
10090;SDS011;5084;51.386;6.778;2023-08-17T08:04:57;10.70;;;9.67;;
10090;SDS011;5084;51.386;6.778;2023-08-17T08:07:23;11.60;;;9.90;;
10090;SDS011;5084;51.386;6.778;2023-08-17T08:09:49;10.97;;;9.03;;
10090;SDS011;5084;51.386;6.778;2023-08-17T08:12:15;9.67;;;8.70;;
10090;SDS011;5084;51.386;6.778;2023-08-17T08:14:41;16.23;;;9.27;;
10090;SDS011;5084;51.386;6.778;2023-08-17T08:17:07;10.83;;;9.73;;
10090;SDS011;5084;51.386;6.778;2023-08-17T08:19:34;10.53;;;9.53;;
10090;SDS011;5084;51.386;6.778;2023-08-17T08:22:00;13.47;;;10.17;;
10090;SDS011;5084;51.386;6.778;2023-08-17T08:24:27;14.07;;;9.40;;
10090;SDS011;5084;51.386;6.778;2023-08-17T08:26:59;12.43;;;9.47;;
10090;SDS011;5084;51.386;6.778;2023-08-17T08:29:26;11.87;;;10.30;;
10090;SDS011;5084;51.386;6.778;2023-08-17T08:31:52;12.17;;;9.90;;
10090;SDS011;5084;51.386;6.778;2023-08-17T08:34:18;12.83;;;10.30;;
10090;SDS011;5084;51.386;6.778;2023-08-17T08:36:45;12.07;;;10.17;;
10090;SDS011;5084;51.386;6.778;2023-08-17T08:39:12;10.97;;;9.87;;
10090;SDS011;5084;51.386;6.778;2023-08-17T08:41:38;13.40;;;10.93;;
10090;SDS011;5084;51.386;6.778;2023-08-17T08:44:04;11.30;;;9.90;;
10090;SDS011;5084;51.386;6.778;2023-08-17T08:46:30;11.10;;;9.73;;
10090;SDS011;5084;51.386;6.778;2023-08-17T08:48:59;12.40;;;10.07;;
10090;SDS011;5084;51.386;6.778;2023-08-17T08:51:26;10.50;;;9.57;;
10090;SDS011;5084;51.386;6.778;2023-08-17T08:54:01;10.80;;;9.70;;
10090;SDS011;5084;51.386;6.778;2023-08-17T08:56:33;10.57;;;9.53;;
10090;SDS011;5084;51.386;6.778;2023-08-17T08:59:01;13.10;;;11.10;;
10090;SDS011;5084;51.386;6.778;2023-08-17T09:01:28;12.43;;;11.13;;
10090;SDS011;5084;51.386;6.778;2023-08-17T09:03:58;12.63;;;10.90;;
10090;SDS011;5084;51.386;6.778;2023-08-17T09:06:25;10.37;;;9.27;;
10090;SDS011;5084;51.386;6.778;2023-08-17T09:08:52;12.50;;;10.17;;
10090;SDS011;5084;51.386;6.778;2023-08-17T09:11:18;12.73;;;10.00;;
10090;SDS011;5084;51.386;6.778;2023-08-17T09:13:45;10.73;;;9.63;;
10090;SDS011;5084;51.386;6.778;2023-08-17T09:16:11;12.13;;;8.87;;
10090;SDS011;5084;51.386;6.778;2023-08-17T09:18:37;10.13;;;9.13;;
10090;SDS011;5084;51.386;6.778;2023-08-17T09:21:03;11.87;;;9.97;;
10090;SDS011;5084;51.386;6.778;2023-08-17T09:23:29;10.07;;;8.87;;
10090;SDS011;5084;51.386;6.778;2023-08-17T09:25:55;11.33;;;10.20;;
10090;SDS011;5084;51.386;6.778;2023-08-17T09:28:25;12.40;;;11.10;;
10090;SDS011;5084;51.386;6.778;2023-08-17T09:30:55;10.97;;;9.83;;
10090;SDS011;5084;51.386;6.778;2023-08-17T09:33:25;12.10;;;10.60;;
10090;SDS011;5084;51.386;6.778;2023-08-17T09:35:52;12.63;;;10.67;;
10090;SDS011;5084;51.386;6.778;2023-08-17T09:38:18;11.67;;;10.43;;
10090;SDS011;5084;51.386;6.778;2023-08-17T09:40:45;11.30;;;10.17;;
10090;SDS011;5084;51.386;6.778;2023-08-17T09:43:11;11.87;;;10.23;;
10090;SDS011;5084;51.386;6.778;2023-08-17T09:45:38;13.30;;;10.97;;
10090;SDS011;5084;51.386;6.778;2023-08-17T09:48:05;12.03;;;10.73;;
10090;SDS011;5084;51.386;6.778;2023-08-17T09:50:31;11.10;;;9.87;;
10090;SDS011;5084;51.386;6.778;2023-08-17T09:52:57;11.77;;;10.67;;
10090;SDS011;5084;51.386;6.778;2023-08-17T09:55:23;12.43;;;10.63;;
10090;SDS011;5084;51.386;6.778;2023-08-17T09:57:50;12.47;;;11.23;;
10090;SDS011;5084;51.386;6.778;2023-08-17T10:00:17;12.80;;;11.60;;
10090;SDS011;5084;51.386;6.778;2023-08-17T10:02:49;13.63;;;12.23;;
10090;SDS011;5084;51.386;6.778;2023-08-17T10:05:17;13.40;;;12.03;;
10090;SDS011;5084;51.386;6.778;2023-08-17T10:07:46;13.67;;;11.47;;
10090;SDS011;5084;51.386;6.778;2023-08-17T10:10:14;14.00;;;10.63;;
10090;SDS011;5084;51.386;6.778;2023-08-17T10:12:48;13.40;;;10.97;;
10090;SDS011;5084;51.386;6.778;2023-08-17T10:15:15;13.20;;;11.80;;
10090;SDS011;5084;51.386;6.778;2023-08-17T10:18:02;12.37;;;11.17;;
10090;SDS011;5084;51.386;6.778;2023-08-17T10:20:33;12.80;;;11.17;;
10090;SDS011;5084;51.386;6.778;2023-08-17T10:23:01;12.67;;;10.90;;
10090;SDS011;5084;51.386;6.778;2023-08-17T10:25:31;12.17;;;10.50;;
10090;SDS011;5084;51.386;6.778;2023-08-17T10:27:57;11.30;;;10.23;;
10090;SDS011;5084;51.386;6.778;2023-08-17T10:30:25;11.93;;;10.40;;
10090;SDS011;5084;51.386;6.778;2023-08-17T10:32:51;10.97;;;9.93;;
10090;SDS011;5084;51.386;6.778;2023-08-17T10:35:17;10.23;;;9.23;;
10090;SDS011;5084;51.386;6.778;2023-08-17T10:37:43;11.60;;;10.40;;
10090;SDS011;5084;51.386;6.778;2023-08-17T10:40:09;10.13;;;9.13;;
10090;SDS011;5084;51.386;6.778;2023-08-17T10:42:36;13.00;;;11.20;;
10090;SDS011;5084;51.386;6.778;2023-08-17T10:45:47;13.67;;;12.37;;
10090;SDS011;5084;51.386;6.778;2023-08-17T10:47:48;16.30;;;14.67;;
10090;SDS011;5084;51.386;6.778;2023-08-17T10:50:22;17.07;;;15.37;;
10090;SDS011;5084;51.386;6.778;2023-08-17T10:52:48;16.90;;;15.20;;
10090;SDS011;5084;51.386;6.778;2023-08-17T10:55:15;13.50;;;12.30;;
10090;SDS011;5084;51.386;6.778;2023-08-17T10:57:41;12.32;;;11.23;;
10090;SDS011;5084;51.386;6.778;2023-08-17T11:02:37;10.23;;;9.30;;
10090;SDS011;5084;51.386;6.778;2023-08-17T11:05:03;11.70;;;9.37;;
10090;SDS011;5084;51.386;6.778;2023-08-17T11:07:42;10.93;;;9.83;;
10090;SDS011;5084;51.386;6.778;2023-08-17T11:10:12;10.70;;;9.37;;
10090;SDS011;5084;51.386;6.778;2023-08-17T11:12:40;11.60;;;10.60;;
10090;SDS011;5084;51.386;6.778;2023-08-17T11:15:06;10.70;;;9.70;;
10090;SDS011;5084;51.386;6.778;2023-08-17T11:17:33;12.53;;;11.33;;
10090;SDS011;5084;51.386;6.778;2023-08-17T11:19:59;14.93;;;13.43;;
10090;SDS011;5084;51.386;6.778;2023-08-17T11:22:25;13.57;;;12.37;;
10090;SDS011;5084;51.386;6.778;2023-08-17T11:24:51;12.47;;;11.17;;
10090;SDS011;5084;51.386;6.778;2023-08-17T11:27:17;13.47;;;12.07;;
10090;SDS011;5084;51.386;6.778;2023-08-17T11:29:44;13.90;;;10.93;;
10090;SDS011;5084;51.386;6.778;2023-08-17T11:32:11;11.80;;;10.70;;
10090;SDS011;5084;51.386;6.778;2023-08-17T11:34:37;11.87;;;10.70;;
10090;SDS011;5084;51.386;6.778;2023-08-17T11:37:04;12.33;;;11.17;;
10090;SDS011;5084;51.386;6.778;2023-08-17T11:39:33;12.53;;;10.90;;
10090;SDS011;5084;51.386;6.778;2023-08-17T11:42:00;11.70;;;10.60;;
10090;SDS011;5084;51.386;6.778;2023-08-17T11:44:26;12.10;;;11.00;;
10090;SDS011;5084;51.386;6.778;2023-08-17T11:46:53;11.87;;;10.47;;
10090;SDS011;5084;51.386;6.778;2023-08-17T11:49:19;13.23;;;12.03;;
10090;SDS011;5084;51.386;6.778;2023-08-17T11:51:45;14.07;;;12.57;;
10090;SDS011;5084;51.386;6.778;2023-08-17T11:54:11;12.30;;;10.67;;
10090;SDS011;5084;51.386;6.778;2023-08-17T11:56:37;13.03;;;11.83;;
10090;SDS011;5084;51.386;6.778;2023-08-17T11:59:09;12.80;;;11.53;;
10090;SDS011;5084;51.386;6.778;2023-08-17T12:01:38;12.37;;;10.67;;
10090;SDS011;5084;51.386;6.778;2023-08-17T12:04:05;12.10;;;11.00;;
10090;SDS011;5084;51.386;6.778;2023-08-17T12:06:31;14.90;;;12.80;;
10090;SDS011;5084;51.386;6.778;2023-08-17T12:08:57;16.50;;;14.90;;
10090;SDS011;5084;51.386;6.778;2023-08-17T12:11:24;20.80;;;16.43;;
10090;SDS011;5084;51.386;6.778;2023-08-17T12:13:51;16.80;;;15.00;;
10090;SDS011;5084;51.386;6.778;2023-08-17T12:16:17;17.40;;;15.70;;
10090;SDS011;5084;51.386;6.778;2023-08-17T12:18:50;16.27;;;14.67;;
10090;SDS011;5084;51.386;6.778;2023-08-17T12:21:16;16.57;;;14.53;;
10090;SDS011;5084;51.386;6.778;2023-08-17T12:23:45;16.00;;;14.53;;
10090;SDS011;5084;51.386;6.778;2023-08-17T12:26:17;17.13;;;15.10;;
10090;SDS011;5084;51.386;6.778;2023-08-17T12:28:43;17.07;;;15.37;;
10090;SDS011;5084;51.386;6.778;2023-08-17T12:31:10;18.43;;;16.33;;
10090;SDS011;5084;51.386;6.778;2023-08-17T12:33:36;18.63;;;15.87;;
10090;SDS011;5084;51.386;6.778;2023-08-17T12:36:02;21.57;;;16.87;;
10090;SDS011;5084;51.386;6.778;2023-08-17T12:38:29;19.10;;;17.27;;
10090;SDS011;5084;51.386;6.778;2023-08-17T12:40:55;18.67;;;16.70;;
10090;SDS011;5084;51.386;6.778;2023-08-17T12:43:21;18.93;;;16.93;;
10090;SDS011;5084;51.386;6.778;2023-08-17T12:45:47;20.67;;;18.43;;
10090;SDS011;5084;51.386;6.778;2023-08-17T12:48:14;21.10;;;18.73;;
10090;SDS011;5084;51.386;6.778;2023-08-17T12:50:40;21.83;;;19.27;;
10090;SDS011;5084;51.386;6.778;2023-08-17T12:53:06;20.23;;;18.10;;
10090;SDS011;5084;51.386;6.778;2023-08-17T12:55:32;21.37;;;19.17;;
10090;SDS011;5084;51.386;6.778;2023-08-17T12:57:58;23.33;;;19.73;;
10090;SDS011;5084;51.386;6.778;2023-08-17T13:00:24;21.43;;;18.87;;
10090;SDS011;5084;51.386;6.778;2023-08-17T13:02:50;22.43;;;20.13;;
10090;SDS011;5084;51.386;6.778;2023-08-17T13:05:17;23.87;;;20.13;;
10090;SDS011;5084;51.386;6.778;2023-08-17T13:07:43;23.80;;;18.67;;
10090;SDS011;5084;51.386;6.778;2023-08-17T13:10:09;21.73;;;18.23;;
10090;SDS011;5084;51.386;6.778;2023-08-17T13:12:35;21.10;;;19.00;;
10090;SDS011;5084;51.386;6.778;2023-08-17T13:15:03;20.17;;;18.20;;
10090;SDS011;5084;51.386;6.778;2023-08-17T13:17:29;21.00;;;18.30;;
10090;SDS011;5084;51.386;6.778;2023-08-17T13:19:55;21.93;;;19.50;;
10090;SDS011;5084;51.386;6.778;2023-08-17T13:22:22;23.33;;;20.20;;
10090;SDS011;5084;51.386;6.778;2023-08-17T13:24:48;21.77;;;19.33;;
10090;SDS011;5084;51.386;6.778;2023-08-17T13:27:14;20.20;;;18.20;;
10090;SDS011;5084;51.386;6.778;2023-08-17T13:29:40;24.07;;;20.17;;
10090;SDS011;5084;51.386;6.778;2023-08-17T13:32:06;20.67;;;18.47;;
10090;SDS011;5084;51.386;6.778;2023-08-17T13:34:32;21.53;;;19.23;;
10090;SDS011;5084;51.386;6.778;2023-08-17T13:36:58;21.87;;;19.63;;
10090;SDS011;5084;51.386;6.778;2023-08-17T13:39:24;23.87;;;21.37;;
10090;SDS011;5084;51.386;6.778;2023-08-17T13:41:51;22.07;;;19.50;;
10090;SDS011;5084;51.386;6.778;2023-08-17T13:44:18;23.00;;;20.50;;
10090;SDS011;5084;51.386;6.778;2023-08-17T13:46:44;24.27;;;20.00;;
10090;SDS011;5084;51.386;6.778;2023-08-17T13:49:10;25.90;;;19.47;;
10090;SDS011;5084;51.386;6.778;2023-08-17T13:51:36;23.30;;;19.33;;
10090;SDS011;5084;51.386;6.778;2023-08-17T13:54:02;23.53;;;19.37;;
10090;SDS011;5084;51.386;6.778;2023-08-17T13:56:28;22.17;;;19.93;;
10090;SDS011;5084;51.386;6.778;2023-08-17T13:58:55;21.80;;;19.40;;
10090;SDS011;5084;51.386;6.778;2023-08-17T14:01:21;64.80;;;22.97;;
10090;SDS011;5084;51.386;6.778;2023-08-17T14:03:47;32.10;;;19.27;;
10090;SDS011;5084;51.386;6.778;2023-08-17T14:06:13;38.63;;;20.87;;
10090;SDS011;5084;51.386;6.778;2023-08-17T14:08:40;20.60;;;18.37;;
10090;SDS011;5084;51.386;6.778;2023-08-17T14:11:07;24.27;;;18.43;;
10090;SDS011;5084;51.386;6.778;2023-08-17T14:13:33;20.93;;;18.83;;
10090;SDS011;5084;51.386;6.778;2023-08-17T14:16:01;47.23;;;21.27;;
10090;SDS011;5084;51.386;6.778;2023-08-17T14:18:28;35.80;;;20.37;;
10090;SDS011;5084;51.386;6.778;2023-08-17T14:20:54;23.47;;;18.97;;
10090;SDS011;5084;51.386;6.778;2023-08-17T14:23:21;23.20;;;17.43;;
10090;SDS011;5084;51.386;6.778;2023-08-17T14:25:47;21.33;;;19.13;;
10090;SDS011;5084;51.386;6.778;2023-08-17T14:28:13;21.70;;;18.40;;
10090;SDS011;5084;51.386;6.778;2023-08-17T14:30:39;21.53;;;19.30;;
10090;SDS011;5084;51.386;6.778;2023-08-17T14:33:05;24.87;;;18.47;;
10090;SDS011;5084;51.386;6.778;2023-08-17T14:35:31;20.03;;;17.60;;
10090;SDS011;5084;51.386;6.778;2023-08-17T14:37:57;25.87;;;18.33;;
10090;SDS011;5084;51.386;6.778;2023-08-17T14:40:26;87.10;;;28.87;;
10090;SDS011;5084;51.386;6.778;2023-08-17T14:42:52;21.17;;;17.43;;
10090;SDS011;5084;51.386;6.778;2023-08-17T14:45:18;21.03;;;18.83;;
10090;SDS011;5084;51.386;6.778;2023-08-17T14:47:44;19.37;;;16.37;;
10090;SDS011;5084;51.386;6.778;2023-08-17T14:50:10;17.83;;;15.60;;
10090;SDS011;5084;51.386;6.778;2023-08-17T14:52:39;19.43;;;16.37;;